sensor_id;sensor_type;location;lat;lon;timestamp;P1;durP1;ratioP1;P2;durP2;ratioP2
62509;SDS011;48558;48.242;11.654;2023-02-23T00:01:48;16.27;;;8.57;;
62509;SDS011;48558;48.242;11.654;2023-02-23T00:06:01;23.63;;;9.00;;
62509;SDS011;48558;48.242;11.654;2023-02-23T00:10:14;14.05;;;8.35;;
62509;SDS011;48558;48.242;11.654;2023-02-23T00:14:29;16.25;;;8.52;;
62509;SDS011;48558;48.242;11.654;2023-02-23T00:18:43;12.75;;;8.82;;
62509;SDS011;48558;48.242;11.654;2023-02-23T00:23:01;13.85;;;9.25;;
62509;SDS011;48558;48.242;11.654;2023-02-23T00:27:15;15.18;;;8.80;;
62509;SDS011;48558;48.242;11.654;2023-02-23T00:31:32;12.73;;;8.85;;
62509;SDS011;48558;48.242;11.654;2023-02-23T00:35:45;14.38;;;8.95;;
62509;SDS011;48558;48.242;11.654;2023-02-23T00:39:58;17.33;;;9.57;;
62509;SDS011;48558;48.242;11.654;2023-02-23T00:44:11;13.40;;;9.77;;
62509;SDS011;48558;48.242;11.654;2023-02-23T00:48:26;15.05;;;9.82;;
62509;SDS011;48558;48.242;11.654;2023-02-23T00:52:40;19.27;;;8.57;;
62509;SDS011;48558;48.242;11.654;2023-02-23T00:56:54;21.35;;;10.50;;
62509;SDS011;48558;48.242;11.654;2023-02-23T01:01:10;18.58;;;9.23;;
62509;SDS011;48558;48.242;11.654;2023-02-23T01:05:34;14.98;;;8.75;;
62509;SDS011;48558;48.242;11.654;2023-02-23T01:09:50;16.27;;;9.15;;
62509;SDS011;48558;48.242;11.654;2023-02-23T01:14:03;15.02;;;10.20;;
62509;SDS011;48558;48.242;11.654;2023-02-23T01:18:16;13.82;;;8.93;;
62509;SDS011;48558;48.242;11.654;2023-02-23T01:22:31;18.63;;;9.27;;
62509;SDS011;48558;48.242;11.654;2023-02-23T01:26:44;18.20;;;8.27;;
62509;SDS011;48558;48.242;11.654;2023-02-23T01:30:57;12.95;;;8.82;;
62509;SDS011;48558;48.242;11.654;2023-02-23T01:35:10;15.57;;;10.30;;
62509;SDS011;48558;48.242;11.654;2023-02-23T01:39:23;12.68;;;8.25;;
62509;SDS011;48558;48.242;11.654;2023-02-23T01:43:53;17.10;;;10.00;;
62509;SDS011;48558;48.242;11.654;2023-02-23T01:48:19;18.85;;;9.75;;
62509;SDS011;48558;48.242;11.654;2023-02-23T01:52:46;14.30;;;9.50;;
62509;SDS011;48558;48.242;11.654;2023-02-23T01:57:03;15.60;;;9.43;;
62509;SDS011;48558;48.242;11.654;2023-02-23T02:01:18;16.13;;;10.02;;
62509;SDS011;48558;48.242;11.654;2023-02-23T02:05:31;16.13;;;9.90;;
62509;SDS011;48558;48.242;11.654;2023-02-23T02:09:44;16.88;;;10.68;;
62509;SDS011;48558;48.242;11.654;2023-02-23T02:14:28;17.88;;;10.45;;
62509;SDS011;48558;48.242;11.654;2023-02-23T02:28:40;19.27;;;9.80;;
62509;SDS011;48558;48.242;11.654;2023-02-23T02:48:13;18.15;;;10.95;;
62509;SDS011;48558;48.242;11.654;2023-02-23T02:52:56;16.48;;;10.07;;
62509;SDS011;48558;48.242;11.654;2023-02-23T02:57:15;15.73;;;9.98;;
62509;SDS011;48558;48.242;11.654;2023-02-23T03:01:31;19.90;;;10.85;;
62509;SDS011;48558;48.242;11.654;2023-02-23T03:06:02;24.42;;;10.77;;
62509;SDS011;48558;48.242;11.654;2023-02-23T03:25:15;17.40;;;9.65;;
62509;SDS011;48558;48.242;11.654;2023-02-23T03:35:42;19.33;;;10.80;;
62509;SDS011;48558;48.242;11.654;2023-02-23T03:40:21;18.52;;;10.55;;
62509;SDS011;48558;48.242;11.654;2023-02-23T03:45:00;17.90;;;10.48;;
62509;SDS011;48558;48.242;11.654;2023-02-23T03:49:40;22.20;;;11.20;;
62509;SDS011;48558;48.242;11.654;2023-02-23T03:54:15;16.58;;;10.38;;
62509;SDS011;48558;48.242;11.654;2023-02-23T03:59:00;17.52;;;9.95;;
62509;SDS011;48558;48.242;11.654;2023-02-23T04:03:37;17.98;;;10.60;;
62509;SDS011;48558;48.242;11.654;2023-02-23T04:08:13;16.75;;;10.82;;
62509;SDS011;48558;48.242;11.654;2023-02-23T04:17:27;22.70;;;10.40;;
62509;SDS011;48558;48.242;11.654;2023-02-23T04:21:41;14.57;;;9.63;;
62509;SDS011;48558;48.242;11.654;2023-02-23T04:25:53;16.48;;;10.55;;
62509;SDS011;48558;48.242;11.654;2023-02-23T04:30:07;16.23;;;10.15;;
62509;SDS011;48558;48.242;11.654;2023-02-23T04:34:22;17.38;;;10.68;;
62509;SDS011;48558;48.242;11.654;2023-02-23T04:38:44;22.40;;;10.45;;
62509;SDS011;48558;48.242;11.654;2023-02-23T04:42:56;16.60;;;10.00;;
62509;SDS011;48558;48.242;11.654;2023-02-23T04:47:09;20.23;;;11.85;;
62509;SDS011;48558;48.242;11.654;2023-02-23T04:51:22;29.05;;;11.98;;
62509;SDS011;48558;48.242;11.654;2023-02-23T04:55:35;21.45;;;12.95;;
62509;SDS011;48558;48.242;11.654;2023-02-23T04:59:48;23.83;;;13.32;;
62509;SDS011;48558;48.242;11.654;2023-02-23T05:04:00;19.38;;;11.63;;
62509;SDS011;48558;48.242;11.654;2023-02-23T05:08:13;20.95;;;11.77;;
62509;SDS011;48558;48.242;11.654;2023-02-23T05:12:25;19.17;;;11.07;;
62509;SDS011;48558;48.242;11.654;2023-02-23T05:16:38;18.55;;;11.30;;
62509;SDS011;48558;48.242;11.654;2023-02-23T05:20:51;18.85;;;11.10;;
62509;SDS011;48558;48.242;11.654;2023-02-23T05:25:04;16.30;;;9.70;;
62509;SDS011;48558;48.242;11.654;2023-02-23T05:29:18;17.92;;;10.57;;
62509;SDS011;48558;48.242;11.654;2023-02-23T05:33:31;17.55;;;11.07;;
62509;SDS011;48558;48.242;11.654;2023-02-23T05:37:45;17.83;;;10.32;;
62509;SDS011;48558;48.242;11.654;2023-02-23T05:41:58;14.75;;;9.90;;
62509;SDS011;48558;48.242;11.654;2023-02-23T05:46:11;17.92;;;10.98;;
62509;SDS011;48558;48.242;11.654;2023-02-23T05:50:28;19.13;;;10.40;;
62509;SDS011;48558;48.242;11.654;2023-02-23T05:54:41;17.65;;;9.68;;
62509;SDS011;48558;48.242;11.654;2023-02-23T05:58:55;19.25;;;10.77;;
62509;SDS011;48558;48.242;11.654;2023-02-23T06:03:17;16.88;;;10.00;;
62509;SDS011;48558;48.242;11.654;2023-02-23T06:07:30;22.70;;;10.80;;
62509;SDS011;48558;48.242;11.654;2023-02-23T06:11:43;19.65;;;10.10;;
62509;SDS011;48558;48.242;11.654;2023-02-23T06:15:56;20.17;;;11.00;;
62509;SDS011;48558;48.242;11.654;2023-02-23T06:20:10;21.98;;;11.65;;
62509;SDS011;48558;48.242;11.654;2023-02-23T06:24:23;18.63;;;11.48;;
62509;SDS011;48558;48.242;11.654;2023-02-23T06:28:36;19.63;;;11.07;;
62509;SDS011;48558;48.242;11.654;2023-02-23T06:32:48;17.90;;;10.85;;
62509;SDS011;48558;48.242;11.654;2023-02-23T06:37:01;20.60;;;11.45;;
62509;SDS011;48558;48.242;11.654;2023-02-23T06:41:13;18.63;;;11.73;;
62509;SDS011;48558;48.242;11.654;2023-02-23T06:45:26;19.90;;;11.55;;
62509;SDS011;48558;48.242;11.654;2023-02-23T06:49:38;20.85;;;11.63;;
62509;SDS011;48558;48.242;11.654;2023-02-23T06:53:51;19.30;;;11.85;;
62509;SDS011;48558;48.242;11.654;2023-02-23T06:58:04;15.73;;;10.85;;
62509;SDS011;48558;48.242;11.654;2023-02-23T07:02:18;20.17;;;11.45;;
62509;SDS011;48558;48.242;11.654;2023-02-23T07:06:31;18.23;;;11.07;;
62509;SDS011;48558;48.242;11.654;2023-02-23T07:10:43;21.00;;;12.60;;
62509;SDS011;48558;48.242;11.654;2023-02-23T07:14:57;18.52;;;11.30;;
62509;SDS011;48558;48.242;11.654;2023-02-23T07:19:09;16.67;;;11.13;;
62509;SDS011;48558;48.242;11.654;2023-02-23T07:23:22;16.58;;;10.55;;
62509;SDS011;48558;48.242;11.654;2023-02-23T07:27:35;19.75;;;11.15;;
62509;SDS011;48558;48.242;11.654;2023-02-23T07:31:51;16.67;;;10.80;;
62509;SDS011;48558;48.242;11.654;2023-02-23T07:36:04;19.90;;;12.13;;
62509;SDS011;48558;48.242;11.654;2023-02-23T07:40:17;19.25;;;11.50;;
62509;SDS011;48558;48.242;11.654;2023-02-23T07:44:30;15.43;;;10.80;;
62509;SDS011;48558;48.242;11.654;2023-02-23T07:48:43;19.02;;;11.82;;
62509;SDS011;48558;48.242;11.654;2023-02-23T07:52:56;22.10;;;11.68;;
62509;SDS011;48558;48.242;11.654;2023-02-23T07:57:08;24.10;;;12.38;;
62509;SDS011;48558;48.242;11.654;2023-02-23T08:01:21;19.85;;;11.18;;
62509;SDS011;48558;48.242;11.654;2023-02-23T08:05:34;16.17;;;11.15;;
62509;SDS011;48558;48.242;11.654;2023-02-23T08:09:50;20.13;;;10.93;;
62509;SDS011;48558;48.242;11.654;2023-02-23T08:14:05;14.63;;;9.98;;
62509;SDS011;48558;48.242;11.654;2023-02-23T08:18:17;15.60;;;10.02;;
62509;SDS011;48558;48.242;11.654;2023-02-23T08:22:30;19.42;;;10.27;;
62509;SDS011;48558;48.242;11.654;2023-02-23T08:27:00;19.17;;;10.10;;
62509;SDS011;48558;48.242;11.654;2023-02-23T08:31:24;20.27;;;10.38;;
62509;SDS011;48558;48.242;11.654;2023-02-23T08:35:38;14.10;;;10.00;;
62509;SDS011;48558;48.242;11.654;2023-02-23T08:39:50;20.75;;;10.25;;
62509;SDS011;48558;48.242;11.654;2023-02-23T08:44:03;17.33;;;10.32;;
62509;SDS011;48558;48.242;11.654;2023-02-23T08:48:16;16.50;;;10.35;;
62509;SDS011;48558;48.242;11.654;2023-02-23T08:52:28;17.88;;;10.73;;
62509;SDS011;48558;48.242;11.654;2023-02-23T08:56:41;12.90;;;9.50;;
62509;SDS011;48558;48.242;11.654;2023-02-23T09:00:53;19.75;;;10.77;;
62509;SDS011;48558;48.242;11.654;2023-02-23T09:05:06;17.27;;;10.30;;
62509;SDS011;48558;48.242;11.654;2023-02-23T09:09:19;18.27;;;10.38;;
62509;SDS011;48558;48.242;11.654;2023-02-23T09:13:32;17.63;;;10.70;;
62509;SDS011;48558;48.242;11.654;2023-02-23T09:17:45;15.70;;;10.32;;
62509;SDS011;48558;48.242;11.654;2023-02-23T09:21:58;18.13;;;10.32;;
62509;SDS011;48558;48.242;11.654;2023-02-23T09:26:11;14.98;;;9.15;;
62509;SDS011;48558;48.242;11.654;2023-02-23T09:30:25;16.15;;;10.00;;
62509;SDS011;48558;48.242;11.654;2023-02-23T09:34:38;21.70;;;9.73;;
62509;SDS011;48558;48.242;11.654;2023-02-23T09:38:56;14.88;;;9.40;;
62509;SDS011;48558;48.242;11.654;2023-02-23T09:43:18;12.93;;;8.68;;
62509;SDS011;48558;48.242;11.654;2023-02-23T09:48:24;14.13;;;8.27;;
62509;SDS011;48558;48.242;11.654;2023-02-23T09:52:39;15.25;;;8.63;;
62509;SDS011;48558;48.242;11.654;2023-02-23T09:57:11;14.63;;;8.88;;
62509;SDS011;48558;48.242;11.654;2023-02-23T10:06:02;14.48;;;7.85;;
62509;SDS011;48558;48.242;11.654;2023-02-23T10:19:29;13.38;;;7.95;;
62509;SDS011;48558;48.242;11.654;2023-02-23T10:23:50;12.20;;;8.00;;
62509;SDS011;48558;48.242;11.654;2023-02-23T10:28:17;13.75;;;8.10;;
62509;SDS011;48558;48.242;11.654;2023-02-23T10:37:08;13.38;;;8.15;;
62509;SDS011;48558;48.242;11.654;2023-02-23T10:41:23;10.75;;;6.93;;
62509;SDS011;48558;48.242;11.654;2023-02-23T10:45:37;11.63;;;7.38;;
62509;SDS011;48558;48.242;11.654;2023-02-23T10:49:56;12.73;;;7.60;;
62509;SDS011;48558;48.242;11.654;2023-02-23T10:58:51;9.82;;;7.18;;
62509;SDS011;48558;48.242;11.654;2023-02-23T11:03:17;15.93;;;7.20;;
62509;SDS011;48558;48.242;11.654;2023-02-23T11:07:39;13.82;;;9.35;;
62509;SDS011;48558;48.242;11.654;2023-02-23T11:11:55;7.00;;;4.53;;
62509;SDS011;48558;48.242;11.654;2023-02-23T11:16:11;11.85;;;7.05;;
62509;SDS011;48558;48.242;11.654;2023-02-23T11:20:32;10.50;;;6.85;;
62509;SDS011;48558;48.242;11.654;2023-02-23T11:24:50;8.13;;;6.03;;
62509;SDS011;48558;48.242;11.654;2023-02-23T11:29:10;13.38;;;6.25;;
62509;SDS011;48558;48.242;11.654;2023-02-23T11:33:29;7.18;;;5.13;;
62509;SDS011;48558;48.242;11.654;2023-02-23T11:37:47;7.68;;;5.60;;
62509;SDS011;48558;48.242;11.654;2023-02-23T11:46:40;11.45;;;6.93;;
62509;SDS011;48558;48.242;11.654;2023-02-23T11:50:57;9.65;;;6.30;;
62509;SDS011;48558;48.242;11.654;2023-02-23T11:55:14;8.57;;;6.75;;
62509;SDS011;48558;48.242;11.654;2023-02-23T11:59:36;9.30;;;6.70;;
62509;SDS011;48558;48.242;11.654;2023-02-23T12:03:53;7.80;;;6.22;;
62509;SDS011;48558;48.242;11.654;2023-02-23T12:08:10;7.22;;;5.78;;
62509;SDS011;48558;48.242;11.654;2023-02-23T12:12:28;6.93;;;5.28;;
62509;SDS011;48558;48.242;11.654;2023-02-23T12:16:47;6.88;;;5.70;;
62509;SDS011;48558;48.242;11.654;2023-02-23T12:26:08;8.15;;;5.72;;
62509;SDS011;48558;48.242;11.654;2023-02-23T12:34:59;7.00;;;5.22;;
62509;SDS011;48558;48.242;11.654;2023-02-23T12:39:23;7.10;;;5.47;;
62509;SDS011;48558;48.242;11.654;2023-02-23T12:43:53;7.97;;;5.43;;
62509;SDS011;48558;48.242;11.654;2023-02-23T12:48:29;9.13;;;5.10;;
62509;SDS011;48558;48.242;11.654;2023-02-23T12:52:57;9.70;;;4.55;;
62509;SDS011;48558;48.242;11.654;2023-02-23T13:01:56;4.70;;;4.03;;
62509;SDS011;48558;48.242;11.654;2023-02-23T13:06:27;6.95;;;4.15;;
62509;SDS011;48558;48.242;11.654;2023-02-23T13:24:49;6.30;;;4.25;;
62509;SDS011;48558;48.242;11.654;2023-02-23T13:33:43;4.28;;;3.83;;
62509;SDS011;48558;48.242;11.654;2023-02-23T13:37:57;4.53;;;3.03;;
62509;SDS011;48558;48.242;11.654;2023-02-23T13:52:02;4.35;;;2.92;;
62509;SDS011;48558;48.242;11.654;2023-02-23T13:56:27;6.63;;;3.13;;
62509;SDS011;48558;48.242;11.654;2023-02-23T14:00:48;4.50;;;2.72;;
62509;SDS011;48558;48.242;11.654;2023-02-23T14:05:18;3.00;;;2.70;;
62509;SDS011;48558;48.242;11.654;2023-02-23T14:09:54;2.30;;;2.10;;
62509;SDS011;48558;48.242;11.654;2023-02-23T14:14:17;4.63;;;2.50;;
62509;SDS011;48558;48.242;11.654;2023-02-23T14:27:34;2.57;;;2.37;;
62509;SDS011;48558;48.242;11.654;2023-02-23T14:32:02;2.78;;;2.50;;
62509;SDS011;48558;48.242;11.654;2023-02-23T14:36:36;5.20;;;2.38;;
62509;SDS011;48558;48.242;11.654;2023-02-23T14:40:54;2.63;;;2.25;;
62509;SDS011;48558;48.242;11.654;2023-02-23T14:49:55;2.33;;;2.13;;
62509;SDS011;48558;48.242;11.654;2023-02-23T14:54:12;4.32;;;2.67;;
62509;SDS011;48558;48.242;11.654;2023-02-23T14:58:50;3.92;;;2.50;;
62509;SDS011;48558;48.242;11.654;2023-02-23T15:03:05;2.45;;;2.22;;
62509;SDS011;48558;48.242;11.654;2023-02-23T15:07:35;2.87;;;2.37;;
62509;SDS011;48558;48.242;11.654;2023-02-23T15:11:50;2.90;;;2.50;;
62509;SDS011;48558;48.242;11.654;2023-02-23T15:16:17;2.92;;;2.63;;
62509;SDS011;48558;48.242;11.654;2023-02-23T15:20:42;3.70;;;2.55;;
62509;SDS011;48558;48.242;11.654;2023-02-23T15:25:01;3.58;;;2.67;;
62509;SDS011;48558;48.242;11.654;2023-02-23T15:29:37;3.30;;;2.67;;
62509;SDS011;48558;48.242;11.654;2023-02-23T15:33:49;3.50;;;2.70;;
62509;SDS011;48558;48.242;11.654;2023-02-23T15:38:02;2.97;;;2.78;;
62509;SDS011;48558;48.242;11.654;2023-02-23T15:42:35;3.85;;;3.00;;
62509;SDS011;48558;48.242;11.654;2023-02-23T15:47:23;4.40;;;2.95;;
62509;SDS011;48558;48.242;11.654;2023-02-23T15:51:56;5.07;;;3.30;;
62509;SDS011;48558;48.242;11.654;2023-02-23T15:56:27;3.75;;;3.42;;
62509;SDS011;48558;48.242;11.654;2023-02-23T16:00:52;4.80;;;3.28;;
62509;SDS011;48558;48.242;11.654;2023-02-23T16:05:20;3.28;;;2.97;;
62509;SDS011;48558;48.242;11.654;2023-02-23T16:09:37;4.05;;;3.30;;
62509;SDS011;48558;48.242;11.654;2023-02-23T16:13:50;3.28;;;2.92;;
62509;SDS011;48558;48.242;11.654;2023-02-23T16:18:09;3.28;;;2.83;;
62509;SDS011;48558;48.242;11.654;2023-02-23T16:22:27;4.03;;;3.00;;
62509;SDS011;48558;48.242;11.654;2023-02-23T16:26:41;4.78;;;3.38;;
62509;SDS011;48558;48.242;11.654;2023-02-23T16:31:05;6.43;;;3.50;;
62509;SDS011;48558;48.242;11.654;2023-02-23T16:35:20;4.03;;;3.53;;
62509;SDS011;48558;48.242;11.654;2023-02-23T16:39:32;3.92;;;3.53;;
62509;SDS011;48558;48.242;11.654;2023-02-23T16:43:46;5.63;;;4.05;;
62509;SDS011;48558;48.242;11.654;2023-02-23T16:48:00;6.82;;;4.70;;
62509;SDS011;48558;48.242;11.654;2023-02-23T16:52:15;5.53;;;4.68;;
62509;SDS011;48558;48.242;11.654;2023-02-23T16:56:37;5.78;;;4.32;;
62509;SDS011;48558;48.242;11.654;2023-02-23T17:00:50;9.23;;;6.22;;
62509;SDS011;48558;48.242;11.654;2023-02-23T17:05:11;8.27;;;5.88;;
62509;SDS011;48558;48.242;11.654;2023-02-23T17:09:34;7.05;;;4.85;;
62509;SDS011;48558;48.242;11.654;2023-02-23T17:13:46;5.72;;;4.50;;
62509;SDS011;48558;48.242;11.654;2023-02-23T17:17:59;6.78;;;4.50;;
62509;SDS011;48558;48.242;11.654;2023-02-23T17:22:11;6.75;;;4.03;;
62509;SDS011;48558;48.242;11.654;2023-02-23T17:26:25;6.18;;;3.70;;
62509;SDS011;48558;48.242;11.654;2023-02-23T17:30:38;6.32;;;4.03;;
62509;SDS011;48558;48.242;11.654;2023-02-23T17:34:51;6.20;;;3.38;;
62509;SDS011;48558;48.242;11.654;2023-02-23T17:39:04;6.78;;;3.30;;
62509;SDS011;48558;48.242;11.654;2023-02-23T17:43:19;4.85;;;3.25;;
62509;SDS011;48558;48.242;11.654;2023-02-23T17:47:34;6.10;;;3.60;;
62509;SDS011;48558;48.242;11.654;2023-02-23T17:51:50;7.10;;;3.70;;
62509;SDS011;48558;48.242;11.654;2023-02-23T17:56:03;6.05;;;3.80;;
62509;SDS011;48558;48.242;11.654;2023-02-23T18:00:17;4.25;;;3.50;;
62509;SDS011;48558;48.242;11.654;2023-02-23T18:04:31;4.38;;;3.45;;
62509;SDS011;48558;48.242;11.654;2023-02-23T18:08:44;5.63;;;3.47;;
62509;SDS011;48558;48.242;11.654;2023-02-23T18:13:06;6.97;;;3.35;;
62509;SDS011;48558;48.242;11.654;2023-02-23T18:17:19;4.80;;;3.55;;
62509;SDS011;48558;48.242;11.654;2023-02-23T18:21:32;11.15;;;3.90;;
62509;SDS011;48558;48.242;11.654;2023-02-23T18:25:46;3.70;;;3.22;;
62509;SDS011;48558;48.242;11.654;2023-02-23T18:29:59;3.67;;;3.15;;
62509;SDS011;48558;48.242;11.654;2023-02-23T18:34:11;5.15;;;3.30;;
62509;SDS011;48558;48.242;11.654;2023-02-23T18:38:25;4.95;;;3.30;;
62509;SDS011;48558;48.242;11.654;2023-02-23T18:42:37;4.57;;;3.30;;
62509;SDS011;48558;48.242;11.654;2023-02-23T18:46:50;9.88;;;3.30;;
62509;SDS011;48558;48.242;11.654;2023-02-23T18:51:03;7.07;;;2.88;;
62509;SDS011;48558;48.242;11.654;2023-02-23T18:55:18;4.95;;;3.40;;
62509;SDS011;48558;48.242;11.654;2023-02-23T18:59:34;11.75;;;3.53;;
62509;SDS011;48558;48.242;11.654;2023-02-23T19:03:47;5.25;;;3.60;;
62509;SDS011;48558;48.242;11.654;2023-02-23T19:08:02;5.03;;;3.40;;
62509;SDS011;48558;48.242;11.654;2023-02-23T19:12:19;6.90;;;3.58;;
62509;SDS011;48558;48.242;11.654;2023-02-23T19:16:31;5.88;;;3.47;;
62509;SDS011;48558;48.242;11.654;2023-02-23T19:20:46;4.97;;;3.75;;
62509;SDS011;48558;48.242;11.654;2023-02-23T19:25:03;5.55;;;3.72;;
62509;SDS011;48558;48.242;11.654;2023-02-23T19:29:16;4.20;;;3.55;;
62509;SDS011;48558;48.242;11.654;2023-02-23T19:33:28;5.75;;;3.28;;
62509;SDS011;48558;48.242;11.654;2023-02-23T19:37:43;7.30;;;3.95;;
62509;SDS011;48558;48.242;11.654;2023-02-23T19:42:01;7.45;;;3.88;;
62509;SDS011;48558;48.242;11.654;2023-02-23T19:46:15;4.95;;;3.38;;
62509;SDS011;48558;48.242;11.654;2023-02-23T19:50:28;5.88;;;3.40;;
62509;SDS011;48558;48.242;11.654;2023-02-23T19:54:41;6.15;;;3.78;;
62509;SDS011;48558;48.242;11.654;2023-02-23T19:58:55;7.68;;;4.65;;
62509;SDS011;48558;48.242;11.654;2023-02-23T20:03:10;7.55;;;4.28;;
62509;SDS011;48558;48.242;11.654;2023-02-23T20:07:25;7.53;;;5.10;;
62509;SDS011;48558;48.242;11.654;2023-02-23T20:11:37;9.05;;;5.00;;
62509;SDS011;48558;48.242;11.654;2023-02-23T20:16:00;6.68;;;4.22;;
62509;SDS011;48558;48.242;11.654;2023-02-23T20:20:14;6.18;;;4.00;;
62509;SDS011;48558;48.242;11.654;2023-02-23T20:24:27;9.90;;;4.72;;
62509;SDS011;48558;48.242;11.654;2023-02-23T20:28:40;6.28;;;4.25;;
62509;SDS011;48558;48.242;11.654;2023-02-23T20:32:54;10.75;;;4.60;;
62509;SDS011;48558;48.242;11.654;2023-02-23T20:37:07;9.07;;;5.65;;
62509;SDS011;48558;48.242;11.654;2023-02-23T20:41:19;5.80;;;4.65;;
62509;SDS011;48558;48.242;11.654;2023-02-23T20:45:32;10.85;;;5.28;;
62509;SDS011;48558;48.242;11.654;2023-02-23T20:49:45;6.78;;;5.15;;
62509;SDS011;48558;48.242;11.654;2023-02-23T20:53:57;7.88;;;4.85;;
62509;SDS011;48558;48.242;11.654;2023-02-23T20:58:20;9.23;;;5.38;;
62509;SDS011;48558;48.242;11.654;2023-02-23T21:02:39;7.05;;;4.75;;
62509;SDS011;48558;48.242;11.654;2023-02-23T21:06:52;7.70;;;5.63;;
62509;SDS011;48558;48.242;11.654;2023-02-23T21:11:05;7.90;;;5.03;;
62509;SDS011;48558;48.242;11.654;2023-02-23T21:15:18;9.60;;;6.05;;
62509;SDS011;48558;48.242;11.654;2023-02-23T21:19:31;9.95;;;6.07;;
62509;SDS011;48558;48.242;11.654;2023-02-23T21:23:43;8.70;;;5.18;;
62509;SDS011;48558;48.242;11.654;2023-02-23T21:27:56;7.00;;;4.80;;
62509;SDS011;48558;48.242;11.654;2023-02-23T21:32:12;8.73;;;4.63;;
62509;SDS011;48558;48.242;11.654;2023-02-23T21:36:35;6.47;;;4.93;;
62509;SDS011;48558;48.242;11.654;2023-02-23T21:40:48;5.88;;;4.60;;
62509;SDS011;48558;48.242;11.654;2023-02-23T21:45:01;8.82;;;5.25;;
62509;SDS011;48558;48.242;11.654;2023-02-23T21:49:14;7.05;;;4.80;;
62509;SDS011;48558;48.242;11.654;2023-02-23T21:53:27;8.32;;;4.75;;
62509;SDS011;48558;48.242;11.654;2023-02-23T21:57:40;6.72;;;4.65;;
62509;SDS011;48558;48.242;11.654;2023-02-23T22:01:53;6.13;;;4.50;;
62509;SDS011;48558;48.242;11.654;2023-02-23T22:06:07;6.50;;;4.43;;
62509;SDS011;48558;48.242;11.654;2023-02-23T22:10:21;6.47;;;4.80;;
62509;SDS011;48558;48.242;11.654;2023-02-23T22:14:35;11.82;;;5.22;;
62509;SDS011;48558;48.242;11.654;2023-02-23T22:18:48;6.15;;;4.57;;
62509;SDS011;48558;48.242;11.654;2023-02-23T22:23:01;7.18;;;4.80;;
62509;SDS011;48558;48.242;11.654;2023-02-23T22:27:14;8.07;;;5.22;;
62509;SDS011;48558;48.242;11.654;2023-02-23T22:31:27;7.95;;;5.18;;
62509;SDS011;48558;48.242;11.654;2023-02-23T22:35:40;7.70;;;5.22;;
62509;SDS011;48558;48.242;11.654;2023-02-23T22:40:03;6.07;;;4.85;;
62509;SDS011;48558;48.242;11.654;2023-02-23T22:44:31;7.25;;;5.40;;
62509;SDS011;48558;48.242;11.654;2023-02-23T22:48:43;7.57;;;5.18;;
62509;SDS011;48558;48.242;11.654;2023-02-23T22:52:56;6.40;;;5.18;;
62509;SDS011;48558;48.242;11.654;2023-02-23T22:57:08;11.27;;;6.03;;
62509;SDS011;48558;48.242;11.654;2023-02-23T23:01:21;11.00;;;6.30;;
62509;SDS011;48558;48.242;11.654;2023-02-23T23:05:37;9.48;;;5.70;;
62509;SDS011;48558;48.242;11.654;2023-02-23T23:09:50;9.27;;;6.07;;
62509;SDS011;48558;48.242;11.654;2023-02-23T23:14:03;8.10;;;4.85;;
62509;SDS011;48558;48.242;11.654;2023-02-23T23:18:18;9.10;;;6.22;;
62509;SDS011;48558;48.242;11.654;2023-02-23T23:22:31;10.30;;;5.75;;
62509;SDS011;48558;48.242;11.654;2023-02-23T23:26:48;8.88;;;5.82;;
62509;SDS011;48558;48.242;11.654;2023-02-23T23:31:06;11.48;;;5.60;;
62509;SDS011;48558;48.242;11.654;2023-02-23T23:35:22;6.43;;;4.85;;
62509;SDS011;48558;48.242;11.654;2023-02-23T23:39:36;7.40;;;4.95;;
62509;SDS011;48558;48.242;11.654;2023-02-23T23:43:53;10.95;;;5.93;;
62509;SDS011;48558;48.242;11.654;2023-02-23T23:48:09;8.63;;;4.78;;
62509;SDS011;48558;48.242;11.654;2023-02-23T23:52:22;6.55;;;4.82;;
62509;SDS011;48558;48.242;11.654;2023-02-23T23:56:36;9.50;;;4.85;;
